createdAt,value
2022-10-05T00:00:01.993Z,21.00
2022-10-05T00:02:52.624Z,19.70
2022-10-05T00:05:42.675Z,19.35
2022-10-05T00:08:36.203Z,20.10
2022-10-05T00:11:25.393Z,18.90
2022-10-05T00:14:19.481Z,20.08
2022-10-05T00:17:11.736Z,18.90
2022-10-05T00:20:00.401Z,19.15
2022-10-05T00:22:49.596Z,21.52
2022-10-05T00:25:40.708Z,22.40
2022-10-05T00:28:31.617Z,20.17
2022-10-05T00:31:22.853Z,17.25
2022-10-05T00:34:11.833Z,18.98
2022-10-05T00:37:01.391Z,21.75
2022-10-05T00:39:51.429Z,19.88
2022-10-05T00:42:50.108Z,16.85
2022-10-05T00:45:43.681Z,21.13
2022-10-05T00:48:39.924Z,19.95
2022-10-05T00:51:31.267Z,19.15
2022-10-05T00:54:29.828Z,20.08
2022-10-05T00:57:34.655Z,21.60
2022-10-05T01:00:28.381Z,20.13
2022-10-05T01:03:23.724Z,18.08
2022-10-05T01:06:24.051Z,19.80
2022-10-05T01:09:21.728Z,19.20
2022-10-05T01:12:18.038Z,20.85
2022-10-05T01:15:13.142Z,21.23
2022-10-05T01:18:08.990Z,17.75
2022-10-05T01:21:04.894Z,19.63
2022-10-05T01:24:38.338Z,20.80
2022-10-05T01:27:50.968Z,21.33
2022-10-05T01:30:46.540Z,18.45
2022-10-05T01:33:42.273Z,24.48
2022-10-05T01:36:37.936Z,20.85
2022-10-05T01:39:38.897Z,19.77
2022-10-05T01:42:36.991Z,19.05
2022-10-05T01:45:36.782Z,19.25
2022-10-05T01:48:38.765Z,18.42
2022-10-05T01:51:38.142Z,18.58
2022-10-05T01:54:39.482Z,17.17
2022-10-05T01:57:42.925Z,18.42
2022-10-05T02:00:39.034Z,17.65
2022-10-05T02:03:32.409Z,17.80
2022-10-05T02:06:25.236Z,17.25
2022-10-05T02:09:17.826Z,19.50
2022-10-05T02:12:13.239Z,19.42
2022-10-05T02:15:10.497Z,17.67
2022-10-05T02:18:06.671Z,18.13
2022-10-05T02:20:58.182Z,17.63
2022-10-05T02:23:50.748Z,19.92
2022-10-05T02:26:40.863Z,17.35
2022-10-05T02:29:33.331Z,18.25
2022-10-05T02:32:26.502Z,19.38
2022-10-05T02:35:19.870Z,16.52
2022-10-05T02:38:15.763Z,17.33
2022-10-05T02:41:16.036Z,16.05
2022-10-05T02:44:12.222Z,17.65
2022-10-05T02:47:09.544Z,18.75
2022-10-05T02:50:05.044Z,20.27
2022-10-05T02:53:06.259Z,19.02
2022-10-05T02:56:06.480Z,19.95
2022-10-05T02:59:02.770Z,19.63
2022-10-05T03:01:53.936Z,18.45
2022-10-05T03:04:49.965Z,17.95
2022-10-05T03:07:49.721Z,20.52
2022-10-05T03:10:47.364Z,21.17
2022-10-05T03:13:48.365Z,20.88
2022-10-05T03:16:43.218Z,20.20
2022-10-05T03:19:57.390Z,20.92
2022-10-05T03:22:50.363Z,20.90
2022-10-05T03:25:55.593Z,19.73
2022-10-05T03:28:57.901Z,21.65
2022-10-05T03:31:50.471Z,21.02
2022-10-05T03:34:48.051Z,21.85
2022-10-05T03:37:45.625Z,22.38
2022-10-05T03:40:39.278Z,22.77
2022-10-05T03:43:53.760Z,21.38
2022-10-05T03:46:58.096Z,20.38
2022-10-05T03:50:06.650Z,19.15
2022-10-05T03:52:58.915Z,19.70
2022-10-05T03:55:54.698Z,19.10
2022-10-05T03:58:54.315Z,18.20
2022-10-05T04:01:50.722Z,17.55
2022-10-05T04:04:44.114Z,19.55
2022-10-05T04:07:44.032Z,20.35
2022-10-05T04:10:41.062Z,18.90
2022-10-05T04:13:35.788Z,18.73
2022-10-05T04:16:29.269Z,20.40
2022-10-05T04:19:23.820Z,18.83
2022-10-05T04:22:17.475Z,19.10
2022-10-05T04:25:17.132Z,18.50
2022-10-05T04:28:12.968Z,17.13
2022-10-05T04:31:05.820Z,17.17
2022-10-05T04:34:10.424Z,17.75
2022-10-05T04:37:04.780Z,17.00
2022-10-05T04:40:08.094Z,15.90
2022-10-05T04:43:05.830Z,17.23
2022-10-05T04:46:15.618Z,17.45
2022-10-05T04:49:29.886Z,15.02
2022-10-05T04:52:26.397Z,17.45
2022-10-05T04:55:26.912Z,15.88
2022-10-05T04:58:30.626Z,16.38
2022-10-05T05:01:43.448Z,15.77
2022-10-05T05:04:56.260Z,17.40
2022-10-05T05:07:54.849Z,17.20
2022-10-05T05:11:06.258Z,16.45
2022-10-05T05:14:18.928Z,15.63
2022-10-05T05:17:19.730Z,15.30
2022-10-05T05:20:20.838Z,15.52
2022-10-05T05:23:16.608Z,15.07
2022-10-05T05:26:16.375Z,14.13
2022-10-05T05:29:10.610Z,14.05
2022-10-05T05:32:07.201Z,13.35
2022-10-05T05:35:24.306Z,14.35
2022-10-05T05:38:27.409Z,13.90
2022-10-05T05:41:25.230Z,13.63
2022-10-05T05:44:22.088Z,13.98
2022-10-05T05:47:18.575Z,16.90
2022-10-05T05:50:24.565Z,16.75
2022-10-05T05:53:20.288Z,13.15
2022-10-05T05:56:12.629Z,13.15
2022-10-05T05:59:05.780Z,14.73
2022-10-05T06:01:59.006Z,14.48
2022-10-05T06:04:52.858Z,14.90
2022-10-05T06:07:42.465Z,14.25
2022-10-05T06:10:41.599Z,14.30
2022-10-05T06:13:35.801Z,14.02
2022-10-05T06:16:31.390Z,14.60
2022-10-05T06:19:24.008Z,13.32
2022-10-05T06:22:22.553Z,12.90
2022-10-05T06:25:26.298Z,14.52
2022-10-05T06:28:17.788Z,14.00
2022-10-05T06:31:20.467Z,15.63
2022-10-05T06:34:24.592Z,13.85
2022-10-05T06:37:21.885Z,12.80
2022-10-05T06:40:19.732Z,12.52
2022-10-05T06:43:31.514Z,12.13
2022-10-05T06:46:24.509Z,12.60
2022-10-05T06:49:20.775Z,11.45
2022-10-05T06:52:18.007Z,10.45
2022-10-05T06:55:17.500Z,10.05
2022-10-05T06:58:21.045Z,10.57
2022-10-05T07:01:17.415Z,11.30
2022-10-05T07:04:20.325Z,11.40
2022-10-05T07:07:16.085Z,12.70
2022-10-05T07:10:19.114Z,12.38
2022-10-05T07:13:20.021Z,11.82
2022-10-05T07:16:19.793Z,11.73
2022-10-05T07:19:20.635Z,11.30
2022-10-05T07:22:30.532Z,11.10
2022-10-05T07:25:25.494Z,11.20
2022-10-05T07:28:20.514Z,12.18
2022-10-05T07:31:17.010Z,12.02
2022-10-05T07:34:11.051Z,13.32
2022-10-05T07:37:23.319Z,12.63
2022-10-05T07:40:19.072Z,11.63
2022-10-05T07:43:23.303Z,10.63
2022-10-05T07:46:22.276Z,11.50
2022-10-05T07:49:19.147Z,11.00
2022-10-05T07:52:14.163Z,12.52
2022-10-05T07:55:07.954Z,14.50
2022-10-05T07:58:06.981Z,14.70
2022-10-05T08:01:08.659Z,15.32
2022-10-05T08:04:03.355Z,16.30
2022-10-05T08:06:55.811Z,15.63
2022-10-05T08:09:50.236Z,16.20
2022-10-05T08:12:59.030Z,16.10
2022-10-05T08:15:51.692Z,15.07
2022-10-05T08:18:51.895Z,15.35
2022-10-05T08:21:47.568Z,16.48
2022-10-05T08:24:45.094Z,16.35
2022-10-05T08:27:43.522Z,14.13
2022-10-05T08:30:37.730Z,17.25
2022-10-05T08:33:32.898Z,15.90
2022-10-05T08:36:29.535Z,15.73
2022-10-05T08:39:22.825Z,15.13
2022-10-05T08:42:45.555Z,15.48
2022-10-05T08:46:00.844Z,16.25
2022-10-05T08:49:18.118Z,14.52
2022-10-05T08:52:29.123Z,15.88
2022-10-05T08:55:43.903Z,14.98
2022-10-05T08:58:51.857Z,16.10
2022-10-05T09:01:59.677Z,14.85
2022-10-05T09:05:04.595Z,17.13
2022-10-05T09:08:15.172Z,16.05
2022-10-05T09:11:11.382Z,15.07
2022-10-05T09:14:24.328Z,15.65
2022-10-05T09:17:25.961Z,14.65
2022-10-05T09:20:36.527Z,15.55
2022-10-05T09:23:38.872Z,16.75
2022-10-05T09:26:45.622Z,14.57
2022-10-05T09:29:53.041Z,14.50
2022-10-05T09:33:16.443Z,15.05
2022-10-05T09:36:53.256Z,16.52
2022-10-05T09:40:31.645Z,17.25
2022-10-05T09:43:44.902Z,15.57
2022-10-05T09:47:04.169Z,15.85
2022-10-05T09:49:59.946Z,17.50
2022-10-05T09:53:11.943Z,15.70
2022-10-05T09:56:20.162Z,15.18
2022-10-05T09:59:27.530Z,15.98
2022-10-05T10:02:52.455Z,15.27
2022-10-05T10:06:11.458Z,16.30
2022-10-05T10:09:19.856Z,17.88
2022-10-05T10:12:34.661Z,16.08
2022-10-05T10:15:41.780Z,19.02
2022-10-05T10:18:55.293Z,16.13
2022-10-05T10:22:17.964Z,16.98
2022-10-05T10:25:37.745Z,19.10
2022-10-05T10:28:38.016Z,21.10
2022-10-05T10:32:08.027Z,18.88
2022-10-05T10:35:19.463Z,19.38
2022-10-05T10:38:29.701Z,15.68
2022-10-05T10:41:55.012Z,14.45
2022-10-05T10:45:21.407Z,14.95
2022-10-05T10:48:12.635Z,13.45
2022-10-05T10:51:26.552Z,14.60
2022-10-05T10:54:55.718Z,13.25
2022-10-05T10:58:06.039Z,10.65
2022-10-05T11:01:03.267Z,13.32
2022-10-05T11:04:30.900Z,10.25
2022-10-05T11:07:59.895Z,11.18
2022-10-05T11:11:27.435Z,13.25
2022-10-05T11:14:42.702Z,11.48
2022-10-05T11:18:03.199Z,11.63
2022-10-05T11:21:21.906Z,9.43
2022-10-05T11:24:44.236Z,10.68
2022-10-05T11:28:00.999Z,10.95
2022-10-05T11:31:40.607Z,8.18
2022-10-05T11:34:39.816Z,10.93
2022-10-05T11:38:01.609Z,12.30
2022-10-05T11:41:14.111Z,10.50
2022-10-05T11:44:43.027Z,9.60
2022-10-05T11:47:39.085Z,12.23
2022-10-05T11:50:34.240Z,10.57
2022-10-05T11:53:29.062Z,9.02
2022-10-05T11:56:22.957Z,10.57
2022-10-05T11:59:19.041Z,8.65
2022-10-05T12:02:27.523Z,8.48
2022-10-05T12:05:22.578Z,7.35
2022-10-05T12:08:25.739Z,6.32
2022-10-05T12:11:33.547Z,6.82
2022-10-05T12:14:34.612Z,7.63
2022-10-05T12:17:28.438Z,7.93
2022-10-05T12:20:22.218Z,7.80
2022-10-05T12:23:18.592Z,9.07
2022-10-05T12:26:11.338Z,7.28
2022-10-05T12:29:08.282Z,7.15
2022-10-05T12:32:03.048Z,7.68
2022-10-05T12:35:01.938Z,4.80
2022-10-05T12:37:57.851Z,5.63
2022-10-05T12:40:51.901Z,6.70
2022-10-05T12:43:50.477Z,6.18
2022-10-05T12:46:46.042Z,5.57
2022-10-05T12:50:12.743Z,7.25
2022-10-05T12:53:19.308Z,5.68
2022-10-05T12:56:13.211Z,5.10
2022-10-05T12:59:14.309Z,7.82
2022-10-05T13:02:13.348Z,7.03
2022-10-05T13:05:18.214Z,7.40
2022-10-05T13:08:19.437Z,6.68
2022-10-05T13:11:16.263Z,6.25
2022-10-05T13:14:18.588Z,7.68
2022-10-05T13:17:15.630Z,5.50
2022-10-05T13:20:13.882Z,6.45
2022-10-05T13:23:14.055Z,5.50
2022-10-05T13:26:04.919Z,5.05
2022-10-05T13:29:00.065Z,4.65
2022-10-05T13:31:50.838Z,5.43
2022-10-05T13:34:48.294Z,4.85
2022-10-05T13:37:44.927Z,4.38
2022-10-05T13:40:47.640Z,4.03
2022-10-05T13:43:45.011Z,4.78
2022-10-05T13:46:39.956Z,4.05
2022-10-05T13:49:38.358Z,3.83
2022-10-05T13:52:38.684Z,3.70
2022-10-05T13:55:42.188Z,3.47
2022-10-05T13:58:41.181Z,4.38
2022-10-05T14:01:42.957Z,5.70
2022-10-05T14:04:45.546Z,5.72
2022-10-05T14:07:38.402Z,2.90
2022-10-05T14:10:36.967Z,3.60
2022-10-05T14:13:30.600Z,3.85
2022-10-05T14:16:25.449Z,5.22
2022-10-05T14:19:22.949Z,3.92
2022-10-05T14:22:14.764Z,3.30
2022-10-05T14:25:17.112Z,2.83
2022-10-05T14:28:26.434Z,3.47
2022-10-05T14:31:18.497Z,4.13
2022-10-05T14:34:29.359Z,2.70
2022-10-05T14:37:20.838Z,3.38
2022-10-05T14:40:29.084Z,4.38
2022-10-05T14:43:22.176Z,3.78
2022-10-05T14:46:28.557Z,3.38
2022-10-05T14:49:22.997Z,3.75
2022-10-05T14:52:32.905Z,3.35
2022-10-05T14:55:38.414Z,3.40
2022-10-05T14:58:43.514Z,4.80
2022-10-05T15:01:36.207Z,4.07
2022-10-05T15:04:37.061Z,3.90
2022-10-05T15:07:29.655Z,3.55
2022-10-05T15:10:31.004Z,5.28
2022-10-05T15:13:22.518Z,5.57
2022-10-05T15:16:19.793Z,3.63
2022-10-05T15:19:21.025Z,3.50
2022-10-05T15:22:28.265Z,3.97
2022-10-05T15:25:18.102Z,3.58
2022-10-05T15:28:18.255Z,4.35
2022-10-05T15:31:19.920Z,3.47
2022-10-05T15:34:17.370Z,4.07
2022-10-05T15:37:16.089Z,5.15
2022-10-05T15:40:08.130Z,4.05
2022-10-05T15:43:04.332Z,3.90
2022-10-05T15:46:03.187Z,3.88
2022-10-05T15:48:56.997Z,5.65
2022-10-05T15:51:59.550Z,5.50
2022-10-05T15:55:10.641Z,5.90
2022-10-05T15:58:12.196Z,5.32
2022-10-05T16:01:08.632Z,4.10
2022-10-05T16:04:06.510Z,5.55
2022-10-05T16:07:18.497Z,5.80
2022-10-05T16:10:14.817Z,6.05
2022-10-05T16:13:21.186Z,5.28
2022-10-05T16:16:21.072Z,5.10
2022-10-05T16:19:17.963Z,4.75
2022-10-05T16:22:18.048Z,4.63
2022-10-05T16:25:11.078Z,5.43
2022-10-05T16:28:13.241Z,5.38
2022-10-05T16:31:09.823Z,4.38
2022-10-05T16:34:06.729Z,6.18
2022-10-05T16:37:03.264Z,4.75
2022-10-05T16:39:56.496Z,5.40
2022-10-05T16:42:55.159Z,6.55
2022-10-05T17:17:04.102Z,6.15
2022-10-05T17:20:10.443Z,6.20
2022-10-05T17:23:05.467Z,6.50
2022-10-05T17:25:57.461Z,6.40
2022-10-05T17:29:01.067Z,6.07
2022-10-05T17:32:13.575Z,7.18
2022-10-05T17:35:18.549Z,7.05
2022-10-05T17:38:23.314Z,6.28
2022-10-05T17:41:22.508Z,5.63
2022-10-05T17:44:24.832Z,6.50
2022-10-05T17:47:16.339Z,7.15
2022-10-05T17:50:31.187Z,6.55
2022-10-05T17:53:53.062Z,6.93
2022-10-05T17:57:23.794Z,6.55
2022-10-05T18:00:42.192Z,7.38
2022-10-05T18:03:40.956Z,6.90
2022-10-05T18:06:35.549Z,6.75
2022-10-05T18:09:34.275Z,7.05
2022-10-05T18:12:42.833Z,6.90
2022-10-05T18:15:48.936Z,7.18
2022-10-05T18:18:56.549Z,6.38
2022-10-05T18:22:01.068Z,7.22
2022-10-05T18:25:03.783Z,6.68
2022-10-05T18:28:03.985Z,6.32
2022-10-05T18:31:01.258Z,6.68
2022-10-05T18:34:04.202Z,6.65
2022-10-05T18:37:00.516Z,7.03
2022-10-05T18:40:04.175Z,8.57
2022-10-05T18:42:56.835Z,8.88
2022-10-05T18:45:51.938Z,8.07
2022-10-05T18:48:46.098Z,8.13
2022-10-05T18:51:38.897Z,7.70
2022-10-05T18:54:36.747Z,7.85
2022-10-05T18:57:35.742Z,8.38
2022-10-05T19:00:26.282Z,9.27
2022-10-05T19:03:19.210Z,8.45
2022-10-05T19:06:13.594Z,8.65
2022-10-05T19:09:09.094Z,10.32
2022-10-05T19:12:03.072Z,10.25
2022-10-05T19:14:57.707Z,10.70
2022-10-05T19:17:54.457Z,9.48
2022-10-05T19:20:47.432Z,8.98
2022-10-05T19:23:52.017Z,9.73
2022-10-05T19:26:54.850Z,12.27
2022-10-05T19:29:50.009Z,12.38
2022-10-05T19:32:45.156Z,14.75
2022-10-05T19:35:35.837Z,13.73
2022-10-05T19:38:29.044Z,15.57
2022-10-05T19:41:20.395Z,14.35
2022-10-05T19:44:19.421Z,14.18
2022-10-05T19:47:17.732Z,15.05
2022-10-05T19:50:21.346Z,12.02
2022-10-05T19:53:14.607Z,13.52
2022-10-05T19:56:13.521Z,14.85
2022-10-05T19:59:14.613Z,14.50
2022-10-05T20:02:04.601Z,14.88
2022-10-05T20:04:55.346Z,12.10
2022-10-05T20:07:45.843Z,14.27
2022-10-05T20:10:35.136Z,15.35
2022-10-05T20:13:25.007Z,13.35
2022-10-05T20:16:46.778Z,15.77
2022-10-05T20:19:57.217Z,16.15
2022-10-05T20:22:47.965Z,15.48
2022-10-05T20:25:40.377Z,15.02
2022-10-05T20:28:33.200Z,16.00
2022-10-05T20:31:22.983Z,16.00
2022-10-05T20:34:12.274Z,15.50
2022-10-05T20:37:13.676Z,12.27
2022-10-05T20:40:04.561Z,14.30
2022-10-05T20:42:56.787Z,13.45
2022-10-05T20:45:46.267Z,13.38
2022-10-05T20:48:36.890Z,14.63
2022-10-05T20:51:29.158Z,12.90
2022-10-05T20:54:19.230Z,16.52
2022-10-05T20:57:10.322Z,16.23
2022-10-05T20:59:59.447Z,12.70
2022-10-05T21:02:49.513Z,12.45
2022-10-05T21:05:38.949Z,15.75
2022-10-05T21:08:27.970Z,15.43
2022-10-05T21:11:17.138Z,16.42
2022-10-05T21:14:07.771Z,16.20
2022-10-05T21:16:57.196Z,14.40
2022-10-05T21:19:46.994Z,12.52
2022-10-05T21:22:36.485Z,13.82
2022-10-05T21:25:25.509Z,16.50
2022-10-05T21:28:14.416Z,12.98
2022-10-05T21:31:05.124Z,15.77
2022-10-05T21:33:54.396Z,14.25
2022-10-05T21:36:44.126Z,12.95
2022-10-05T21:39:34.233Z,15.00
2022-10-05T21:42:23.726Z,15.05
2022-10-05T21:45:12.945Z,16.55
2022-10-05T21:48:03.760Z,16.13
2022-10-05T21:50:53.008Z,15.73
2022-10-05T21:53:43.057Z,15.75
2022-10-05T21:56:33.265Z,16.80
2022-10-05T21:59:24.465Z,17.25
2022-10-05T22:02:13.689Z,18.38
2022-10-05T22:05:04.202Z,17.55
2022-10-05T22:07:53.294Z,17.75
2022-10-05T22:10:42.800Z,16.58
2022-10-05T22:13:41.939Z,17.00
2022-10-05T22:16:33.074Z,17.52
2022-10-05T22:19:22.578Z,17.92
2022-10-05T22:22:13.957Z,17.70
2022-10-05T22:25:03.157Z,16.40
2022-10-05T22:27:52.435Z,16.75
2022-10-05T22:30:42.312Z,15.77
2022-10-05T22:33:31.270Z,16.02
2022-10-05T22:36:21.215Z,15.63
2022-10-05T22:39:14.087Z,15.93
2022-10-05T22:42:03.158Z,15.25
2022-10-05T22:44:52.534Z,15.18
2022-10-05T22:47:42.934Z,16.52
2022-10-05T22:50:32.277Z,16.35
2022-10-05T22:53:22.123Z,16.38
2022-10-05T22:56:14.294Z,17.13
2022-10-05T22:59:03.628Z,18.17
2022-10-05T23:01:52.806Z,15.45
2022-10-05T23:04:42.173Z,15.73
2022-10-05T23:07:31.481Z,15.95
2022-10-05T23:10:21.691Z,17.58
2022-10-05T23:13:11.961Z,16.38
2022-10-05T23:16:01.046Z,16.35
2022-10-05T23:18:51.212Z,15.90
2022-10-05T23:21:40.304Z,15.63
2022-10-05T23:24:29.619Z,17.52
2022-10-05T23:27:19.333Z,18.48
2022-10-05T23:30:10.464Z,17.90
2022-10-05T23:32:59.479Z,18.73
2022-10-05T23:35:48.099Z,16.73
2022-10-05T23:38:37.910Z,18.30
2022-10-05T23:44:02.054Z,17.30
2022-10-05T23:46:52.401Z,18.95
2022-10-05T23:49:42.639Z,19.27
2022-10-05T23:52:31.952Z,17.75
2022-10-05T23:55:21.275Z,18.83
2022-10-05T23:58:10.383Z,16.88
